createdAt,value
2023-03-29T00:01:00.472Z,-0.01
2023-03-29T00:03:28.988Z,-0.13
2023-03-29T00:06:03.818Z,-0.29
2023-03-29T00:08:40.286Z,-0.26
2023-03-29T00:11:07.890Z,-0.31
2023-03-29T00:13:35.297Z,-0.26
2023-03-29T00:16:02.696Z,-0.22
2023-03-29T00:18:29.476Z,-0.27
2023-03-29T00:20:57.632Z,-0.08
2023-03-29T00:23:25.502Z,-0.06
2023-03-29T00:25:56.420Z,-0.08
2023-03-29T00:28:23.788Z,-0.07
2023-03-29T00:30:53.472Z,-0.16
2023-03-29T00:33:21.150Z,-0.32
2023-03-29T00:35:48.878Z,-0.45
2023-03-29T00:38:18.614Z,-0.36
2023-03-29T00:40:47.092Z,-0.38
2023-03-29T00:43:17.529Z,-0.41
2023-03-29T00:45:44.619Z,-0.60
2023-03-29T00:48:16.004Z,-0.62
2023-03-29T00:50:59.969Z,-0.46
2023-03-29T00:53:39.728Z,-0.44
2023-03-29T00:56:14.313Z,-0.34
2023-03-29T00:59:10.198Z,-0.34
2023-03-29T01:01:45.779Z,-0.23
2023-03-29T01:04:42.887Z,-0.32
2023-03-29T01:07:18.623Z,-0.48
2023-03-29T01:09:51.062Z,-0.41
2023-03-29T01:12:24.255Z,-0.31
2023-03-29T01:15:02.254Z,-0.46
2023-03-29T01:17:31.894Z,-0.45
2023-03-29T01:20:10.685Z,-0.35
2023-03-29T01:23:01.010Z,-0.50
2023-03-29T01:25:36.999Z,-0.66
2023-03-29T01:28:12.058Z,-0.76
2023-03-29T01:31:02.011Z,-0.61
2023-03-29T01:33:34.500Z,-0.42
2023-03-29T01:36:11.904Z,-0.44
2023-03-29T01:39:07.291Z,-0.13
2023-03-29T01:41:57.445Z,-0.44
2023-03-29T01:44:42.760Z,-0.63
2023-03-29T01:47:31.877Z,-0.72
2023-03-29T01:50:16.425Z,-0.69
2023-03-29T01:52:47.121Z,-0.81
2023-03-29T01:55:20.310Z,-0.80
2023-03-29T01:57:48.682Z,-0.79
2023-03-29T02:00:24.781Z,-0.85
2023-03-29T02:02:55.486Z,-1.07
2023-03-29T02:05:24.714Z,-0.90
2023-03-29T02:07:53.026Z,-0.86
2023-03-29T02:10:22.044Z,-0.70
2023-03-29T02:12:49.674Z,-0.57
2023-03-29T02:15:19.281Z,-0.50
2023-03-29T02:17:47.802Z,-0.43
2023-03-29T02:20:24.631Z,-0.61
2023-03-29T02:23:21.404Z,-0.72
2023-03-29T02:25:57.157Z,-1.05
2023-03-29T02:28:25.769Z,-1.29
2023-03-29T02:31:21.730Z,-1.51
2023-03-29T02:33:48.784Z,-1.73
2023-03-29T02:36:25.088Z,-1.66
2023-03-29T02:38:54.376Z,-1.68
2023-03-29T02:41:23.910Z,-1.78
2023-03-29T02:43:51.647Z,-1.62
2023-03-29T02:46:19.777Z,-1.71
2023-03-29T02:48:50.563Z,-1.52
2023-03-29T02:51:25.122Z,-1.42
2023-03-29T02:54:16.426Z,-1.30
2023-03-29T02:56:46.113Z,-1.19
2023-03-29T02:59:14.283Z,-1.28
2023-03-29T03:01:44.218Z,-1.35
2023-03-29T03:04:12.466Z,-1.36
2023-03-29T03:06:42.113Z,-1.36
2023-03-29T03:09:10.027Z,-1.39
2023-03-29T03:11:36.802Z,-1.54
2023-03-29T03:14:03.686Z,-1.51
2023-03-29T03:16:30.449Z,-1.57
2023-03-29T03:18:57.363Z,-1.52
2023-03-29T03:21:24.663Z,-1.46
2023-03-29T03:23:52.853Z,-1.35
2023-03-29T03:26:21.653Z,-1.42
2023-03-29T03:28:48.652Z,-1.47
2023-03-29T03:31:15.698Z,-1.50
2023-03-29T03:33:46.557Z,-1.51
2023-03-29T03:36:14.215Z,-1.44
2023-03-29T03:38:44.283Z,-1.37
2023-03-29T03:41:11.203Z,-1.30
2023-03-29T03:43:38.358Z,-1.26
2023-03-29T03:46:05.627Z,-1.31
2023-03-29T03:48:32.584Z,-1.48
2023-03-29T03:50:59.345Z,-1.62
2023-03-29T03:53:27.552Z,-1.88
2023-03-29T03:55:58.293Z,-2.10
2023-03-29T03:58:25.151Z,-2.06
2023-03-29T04:00:52.137Z,-1.95
2023-03-29T04:03:19.227Z,-1.67
2023-03-29T04:05:47.262Z,-1.69
2023-03-29T04:08:15.107Z,-1.51
2023-03-29T04:10:42.210Z,-1.31
2023-03-29T04:13:09.321Z,-1.34
2023-03-29T04:15:39.018Z,-1.32
2023-03-29T04:18:07.624Z,-1.35
2023-03-29T04:20:35.327Z,-1.38
2023-03-29T04:23:02.602Z,-1.59
2023-03-29T04:25:30.028Z,-1.66
2023-03-29T04:27:56.994Z,-1.64
2023-03-29T04:30:24.775Z,-1.65
2023-03-29T04:32:52.184Z,-1.48
2023-03-29T04:35:19.280Z,-1.17
2023-03-29T04:37:46.214Z,-0.85
2023-03-29T04:40:14.670Z,-0.77
2023-03-29T04:42:46.037Z,-0.78
2023-03-29T04:45:14.152Z,-0.50
2023-03-29T04:47:42.204Z,-0.33
2023-03-29T04:50:09.719Z,-0.14
2023-03-29T04:52:36.702Z,-0.07
2023-03-29T04:55:05.313Z,-0.16
2023-03-29T04:57:35.793Z,-0.25
2023-03-29T05:00:08.485Z,-0.14
2023-03-29T05:02:35.584Z,-0.08
2023-03-29T05:05:02.599Z,0.04
2023-03-29T05:07:29.918Z,0.15
2023-03-29T05:09:57.063Z,0.19
2023-03-29T05:12:24.130Z,-0.03
2023-03-29T05:14:51.183Z,0.02
2023-03-29T05:17:18.106Z,-0.21
2023-03-29T05:19:44.960Z,-0.09
2023-03-29T05:22:11.791Z,0.03
2023-03-29T05:24:40.469Z,-0.11
2023-03-29T05:27:08.353Z,-0.12
2023-03-29T05:29:35.214Z,-0.26
2023-03-29T05:32:02.512Z,0.02
2023-03-29T05:34:31.533Z,0.18
2023-03-29T05:36:59.654Z,0.45
2023-03-29T05:39:26.709Z,0.40
2023-03-29T05:41:55.025Z,0.14
2023-03-29T05:44:22.038Z,0.23
2023-03-29T05:46:50.872Z,0.32
2023-03-29T05:49:18.108Z,0.49
2023-03-29T05:51:47.717Z,0.49
2023-03-29T05:54:16.015Z,0.58
2023-03-29T05:56:42.911Z,0.68
2023-03-29T05:59:09.917Z,0.90
2023-03-29T06:01:37.986Z,1.41
2023-03-29T06:04:06.627Z,1.73
2023-03-29T06:06:35.980Z,1.82
2023-03-29T06:09:03.228Z,1.99
2023-03-29T06:11:31.764Z,2.25
2023-03-29T06:13:59.318Z,1.82
2023-03-29T06:16:26.272Z,2.06
2023-03-29T06:18:53.463Z,2.25
2023-03-29T06:21:22.440Z,2.58
2023-03-29T06:23:50.470Z,2.99
2023-03-29T06:26:17.978Z,3.34
2023-03-29T06:28:45.661Z,2.97
2023-03-29T06:31:13.501Z,2.81
2023-03-29T06:33:43.240Z,3.01
2023-03-29T06:36:12.152Z,2.90
2023-03-29T06:38:39.927Z,3.24
2023-03-29T06:41:08.733Z,3.30
2023-03-29T06:43:35.605Z,3.47
2023-03-29T06:46:02.783Z,3.68
2023-03-29T06:48:30.247Z,2.89
2023-03-29T06:50:57.174Z,3.14
2023-03-29T06:53:24.045Z,3.26
2023-03-29T06:55:52.306Z,2.52
2023-03-29T06:58:19.856Z,2.73
2023-03-29T07:00:46.881Z,2.99
2023-03-29T07:03:20.265Z,3.10
2023-03-29T07:05:47.977Z,3.34
2023-03-29T07:08:16.613Z,3.29
2023-03-29T07:10:49.088Z,3.00
2023-03-29T07:13:15.913Z,2.55
2023-03-29T07:15:43.993Z,2.58
2023-03-29T07:18:12.852Z,2.31
2023-03-29T07:20:41.923Z,2.71
2023-03-29T07:23:11.489Z,2.89
2023-03-29T07:25:39.613Z,3.17
2023-03-29T07:28:07.778Z,3.26
2023-03-29T07:30:34.718Z,3.59
2023-03-29T07:33:01.617Z,3.68
2023-03-29T07:35:29.236Z,3.92
2023-03-29T07:37:56.615Z,4.08
2023-03-29T07:40:24.454Z,3.72
2023-03-29T07:42:55.557Z,3.70
2023-03-29T07:45:26.928Z,3.76
2023-03-29T07:47:59.738Z,4.06
2023-03-29T07:50:27.785Z,4.01
2023-03-29T07:52:55.246Z,4.09
2023-03-29T07:55:22.351Z,4.24
2023-03-29T07:57:49.803Z,4.00
2023-03-29T08:00:17.639Z,3.95
2023-03-29T08:02:46.049Z,4.03
2023-03-29T08:05:17.536Z,4.15
2023-03-29T08:07:47.959Z,4.39
2023-03-29T08:10:18.191Z,4.69
2023-03-29T08:12:46.689Z,4.80
2023-03-29T08:15:14.471Z,4.23
2023-03-29T08:17:41.951Z,4.35
2023-03-29T08:20:12.360Z,4.38
2023-03-29T08:22:39.538Z,4.54
2023-03-29T08:25:07.475Z,4.73
2023-03-29T08:27:34.946Z,4.58
2023-03-29T08:30:01.745Z,4.74
2023-03-29T08:32:28.759Z,4.90
2023-03-29T08:34:55.793Z,4.89
2023-03-29T08:37:24.692Z,5.04
2023-03-29T08:39:51.832Z,5.01
2023-03-29T08:42:41.145Z,5.25
2023-03-29T08:45:23.071Z,5.49
2023-03-29T08:48:17.524Z,5.69
2023-03-29T08:50:49.506Z,6.01
2023-03-29T08:53:29.686Z,6.09
2023-03-29T08:55:59.853Z,6.00
2023-03-29T08:58:32.573Z,6.10
2023-03-29T09:01:06.258Z,6.49
2023-03-29T09:04:00.227Z,7.29
2023-03-29T09:06:27.088Z,7.40
2023-03-29T09:08:53.902Z,7.63
2023-03-29T09:11:20.834Z,7.31
2023-03-29T09:14:15.027Z,7.82
2023-03-29T09:17:11.775Z,7.18
2023-03-29T09:20:21.904Z,7.42
2023-03-29T09:23:22.376Z,8.19
2023-03-29T09:26:16.205Z,8.29
2023-03-29T09:29:04.967Z,8.09
2023-03-29T09:31:42.801Z,8.31
2023-03-29T09:34:15.954Z,8.35
2023-03-29T09:37:12.062Z,6.93
2023-03-29T09:39:41.131Z,7.33
2023-03-29T09:42:10.451Z,7.99
2023-03-29T09:44:44.303Z,8.16
2023-03-29T09:47:23.790Z,7.50
2023-03-29T09:49:55.333Z,7.51
2023-03-29T09:52:22.471Z,7.73
2023-03-29T09:54:49.783Z,7.63
2023-03-29T09:57:18.044Z,7.93
2023-03-29T09:59:47.003Z,7.61
2023-03-29T10:02:14.718Z,8.26
2023-03-29T10:04:43.325Z,8.17
2023-03-29T10:07:18.209Z,8.44
2023-03-29T10:09:48.290Z,8.16
2023-03-29T10:12:16.959Z,8.26
2023-03-29T10:14:48.638Z,8.15
2023-03-29T10:17:23.101Z,8.03
2023-03-29T10:19:49.905Z,8.31
2023-03-29T10:22:22.036Z,8.66
2023-03-29T10:24:53.964Z,8.76
2023-03-29T10:27:24.456Z,8.86
2023-03-29T10:29:52.277Z,8.57
2023-03-29T10:32:34.685Z,8.85
2023-03-29T10:35:21.631Z,9.19
2023-03-29T10:37:55.368Z,9.26
2023-03-29T10:40:30.958Z,8.48
2023-03-29T10:43:27.171Z,9.47
2023-03-29T10:45:57.133Z,9.60
2023-03-29T10:48:29.966Z,10.26
2023-03-29T10:51:02.316Z,10.22
2023-03-29T10:53:35.203Z,9.63
2023-03-29T10:56:30.756Z,9.67
2023-03-29T10:59:23.473Z,9.79
2023-03-29T11:02:02.851Z,10.00
2023-03-29T11:05:00.302Z,10.30
2023-03-29T11:07:48.809Z,9.82
2023-03-29T11:10:32.670Z,10.60
2023-03-29T11:13:06.120Z,10.80
2023-03-29T11:15:43.953Z,10.94
2023-03-29T11:18:37.942Z,10.95
2023-03-29T11:21:11.753Z,9.92
2023-03-29T11:24:16.995Z,10.20
2023-03-29T11:26:59.961Z,10.19
2023-03-29T11:30:12.431Z,10.41
2023-03-29T11:33:09.481Z,10.96
2023-03-29T11:35:47.137Z,11.06
2023-03-29T11:38:20.372Z,10.62
2023-03-29T11:41:18.848Z,10.58
2023-03-29T11:43:54.147Z,10.54
2023-03-29T11:46:30.541Z,10.60
2023-03-29T11:49:21.633Z,11.11
2023-03-29T11:51:52.207Z,10.18
2023-03-29T11:54:51.893Z,10.44
2023-03-29T11:57:31.174Z,10.67
2023-03-29T12:00:14.785Z,10.32
2023-03-29T12:02:55.350Z,10.62
2023-03-29T12:05:31.684Z,11.48
2023-03-29T12:08:08.614Z,10.86
2023-03-29T12:10:42.073Z,10.54
2023-03-29T12:13:21.149Z,10.07
2023-03-29T12:15:57.437Z,10.26
2023-03-29T12:18:33.431Z,10.36
2023-03-29T12:21:04.852Z,10.65
2023-03-29T12:23:34.056Z,10.55
2023-03-29T12:26:23.181Z,11.19
2023-03-29T12:29:27.638Z,10.68
2023-03-29T12:32:12.751Z,11.23
2023-03-29T12:34:59.942Z,11.46
2023-03-29T12:37:32.365Z,11.28
2023-03-29T12:40:21.652Z,10.87
2023-03-29T12:42:54.374Z,10.94
2023-03-29T12:45:38.163Z,11.22
2023-03-29T12:48:06.715Z,10.78
2023-03-29T12:50:46.198Z,10.69
2023-03-29T12:53:13.170Z,10.84
2023-03-29T12:55:42.746Z,11.00
2023-03-29T12:58:40.257Z,10.72
2023-03-29T13:01:25.160Z,10.98
2023-03-29T13:04:10.599Z,11.18
2023-03-29T13:06:47.472Z,10.68
2023-03-29T13:09:38.068Z,9.84
2023-03-29T13:12:10.876Z,9.47
2023-03-29T13:14:46.435Z,9.97
2023-03-29T13:17:45.219Z,10.74
2023-03-29T13:20:31.916Z,10.40
2023-03-29T13:23:05.313Z,10.26
2023-03-29T13:26:09.853Z,10.17
2023-03-29T13:29:07.386Z,9.69
2023-03-29T13:32:07.838Z,9.62
2023-03-29T13:34:53.577Z,10.00
2023-03-29T13:37:29.977Z,10.46
2023-03-29T13:39:57.738Z,10.57
2023-03-29T13:42:37.758Z,10.85
2023-03-29T13:45:14.049Z,12.07
2023-03-29T13:47:54.850Z,13.32
2023-03-29T13:50:39.046Z,13.49
2023-03-29T13:53:29.372Z,13.42
2023-03-29T13:55:59.613Z,13.26
2023-03-29T13:58:35.895Z,13.11
2023-03-29T14:01:28.431Z,13.05
2023-03-29T14:03:57.007Z,12.26
2023-03-29T14:06:29.416Z,11.43
2023-03-29T14:08:57.638Z,10.64
2023-03-29T14:11:30.974Z,10.71
2023-03-29T14:14:02.953Z,11.41
2023-03-29T14:16:33.395Z,11.12
2023-03-29T14:19:13.616Z,11.35
2023-03-29T14:21:43.741Z,12.24
2023-03-29T14:24:16.813Z,12.97
2023-03-29T14:26:47.268Z,13.28
2023-03-29T14:29:14.838Z,12.80
2023-03-29T14:31:42.898Z,12.12
2023-03-29T14:34:16.946Z,12.79
2023-03-29T14:36:48.925Z,13.05
2023-03-29T14:39:23.437Z,13.05
2023-03-29T14:41:53.570Z,13.31
2023-03-29T14:44:22.909Z,12.90
2023-03-29T14:46:49.740Z,13.29
2023-03-29T14:49:19.793Z,13.56
2023-03-29T14:51:49.298Z,13.65
2023-03-29T14:54:29.810Z,12.55
2023-03-29T14:56:58.184Z,12.22
2023-03-29T14:59:36.735Z,11.76
2023-03-29T15:02:04.345Z,11.61
2023-03-29T15:04:37.550Z,12.14
2023-03-29T15:07:05.445Z,12.04
2023-03-29T15:09:34.885Z,12.01
2023-03-29T15:12:04.481Z,11.95
2023-03-29T15:14:38.253Z,11.49
2023-03-29T15:17:22.399Z,11.19
2023-03-29T15:20:25.401Z,11.27
2023-03-29T15:22:58.918Z,11.21
2023-03-29T15:25:33.011Z,10.91
2023-03-29T15:28:02.066Z,11.31
2023-03-29T15:30:36.250Z,11.44
2023-03-29T15:33:20.147Z,11.07
2023-03-29T15:35:51.374Z,10.85
2023-03-29T15:38:25.431Z,11.00
2023-03-29T15:41:04.343Z,11.07
2023-03-29T15:43:33.042Z,9.97
2023-03-29T15:46:00.330Z,10.22
2023-03-29T15:48:30.044Z,10.33
2023-03-29T15:51:00.808Z,10.60
2023-03-29T15:53:29.993Z,10.80
2023-03-29T15:56:02.840Z,10.97
2023-03-29T15:58:32.873Z,11.09
2023-03-29T16:01:34.354Z,11.06
2023-03-29T16:04:05.503Z,11.27
2023-03-29T16:06:34.029Z,11.26
2023-03-29T16:09:05.274Z,11.31
2023-03-29T16:11:32.223Z,10.82
2023-03-29T16:14:00.211Z,10.86
2023-03-29T16:16:27.438Z,11.19
2023-03-29T16:18:57.986Z,11.22
2023-03-29T16:21:27.291Z,11.18
2023-03-29T16:23:54.285Z,11.31
2023-03-29T16:26:22.506Z,11.50
2023-03-29T16:28:50.168Z,11.46
2023-03-29T16:31:18.805Z,11.49
2023-03-29T16:33:46.754Z,11.44
2023-03-29T16:36:15.301Z,11.71
2023-03-29T16:38:42.469Z,11.27
2023-03-29T16:41:15.009Z,11.37
2023-03-29T16:43:43.280Z,11.32
2023-03-29T16:46:11.381Z,11.59
2023-03-29T16:48:39.595Z,11.75
2023-03-29T16:51:07.199Z,11.94
2023-03-29T16:53:35.926Z,11.77
2023-03-29T16:56:04.892Z,11.76
2023-03-29T16:58:32.426Z,11.31
2023-03-29T17:01:10.970Z,11.70
2023-03-29T17:03:39.883Z,11.89
2023-03-29T17:06:08.169Z,11.86
2023-03-29T17:08:35.429Z,11.89
2023-03-29T17:11:03.545Z,11.69
2023-03-29T17:13:34.530Z,11.29
2023-03-29T17:16:02.645Z,10.70
2023-03-29T17:18:31.007Z,10.58
2023-03-29T17:21:00.214Z,10.75
2023-03-29T17:23:29.440Z,10.57
2023-03-29T17:25:58.431Z,10.45
2023-03-29T17:28:27.126Z,10.52
2023-03-29T17:30:56.017Z,10.74
2023-03-29T17:33:26.443Z,10.88
2023-03-29T17:35:53.645Z,11.01
2023-03-29T17:38:21.662Z,11.32
2023-03-29T17:40:53.771Z,11.70
2023-03-29T17:43:21.191Z,12.03
2023-03-29T17:45:53.478Z,12.26
2023-03-29T17:48:21.734Z,12.49
2023-03-29T17:50:49.653Z,12.61
2023-03-29T17:53:17.671Z,12.71
2023-03-29T17:55:46.389Z,12.79
2023-03-29T17:58:15.027Z,12.77
2023-03-29T18:00:43.950Z,12.78
2023-03-29T18:03:13.290Z,12.89
2023-03-29T18:05:42.108Z,12.82
2023-03-29T18:08:10.906Z,12.89
2023-03-29T18:10:40.105Z,12.86
2023-03-29T18:13:13.768Z,12.84
2023-03-29T18:15:45.121Z,12.83
2023-03-29T18:18:13.863Z,12.88
2023-03-29T18:20:45.296Z,12.89
2023-03-29T18:23:13.007Z,12.89
2023-03-29T18:25:42.166Z,12.88
2023-03-29T18:28:11.510Z,12.97
2023-03-29T18:30:40.095Z,12.81
2023-03-29T18:33:08.805Z,12.80
2023-03-29T18:35:37.501Z,12.85
2023-03-29T18:38:06.671Z,12.76
2023-03-29T18:40:35.268Z,12.68
2023-03-29T18:43:03.795Z,12.83
2023-03-29T18:45:32.401Z,12.78
2023-03-29T18:48:02.131Z,12.66
2023-03-29T18:50:29.969Z,12.72
2023-03-29T18:52:58.007Z,12.64
2023-03-29T18:55:25.831Z,12.65
2023-03-29T18:57:53.818Z,12.67
2023-03-29T19:00:22.955Z,12.66
2023-03-29T19:02:51.628Z,12.55
2023-03-29T19:05:20.305Z,12.61
2023-03-29T19:07:48.245Z,12.62
2023-03-29T19:10:16.697Z,12.68
2023-03-29T19:12:44.745Z,12.64
2023-03-29T19:15:13.032Z,12.54
2023-03-29T19:17:41.578Z,12.53
2023-03-29T19:20:10.253Z,12.43
2023-03-29T19:22:38.630Z,12.46
2023-03-29T19:25:07.733Z,12.42
2023-03-29T19:27:36.579Z,12.42
2023-03-29T19:30:10.940Z,12.32
2023-03-29T19:32:39.547Z,12.34
2023-03-29T19:35:09.845Z,12.30
2023-03-29T19:37:43.023Z,12.37
2023-03-29T19:40:12.304Z,12.36
2023-03-29T19:42:41.636Z,12.30
2023-03-29T19:45:10.836Z,12.27
2023-03-29T19:47:38.782Z,11.99
2023-03-29T19:50:07.306Z,11.94
2023-03-29T19:52:36.048Z,11.84
2023-03-29T19:55:06.590Z,11.82
2023-03-29T19:57:34.437Z,11.76
2023-03-29T20:00:04.183Z,11.73
2023-03-29T20:02:31.555Z,11.78
2023-03-29T20:04:59.418Z,11.81
2023-03-29T20:07:27.187Z,11.61
2023-03-29T20:09:54.945Z,11.63
2023-03-29T20:12:23.853Z,11.70
2023-03-29T20:14:51.944Z,11.73
2023-03-29T20:17:19.831Z,11.58
2023-03-29T20:19:48.672Z,11.61
2023-03-29T20:22:16.486Z,11.63
2023-03-29T20:24:45.547Z,11.66
2023-03-29T20:27:15.929Z,11.54
2023-03-29T20:29:43.669Z,10.98
2023-03-29T20:32:11.661Z,10.99
2023-03-29T20:34:39.576Z,11.02
2023-03-29T20:37:07.636Z,11.02
2023-03-29T20:39:35.836Z,10.67
2023-03-29T20:42:04.539Z,10.44
2023-03-29T20:44:35.240Z,10.35
2023-03-29T20:47:08.399Z,10.22
2023-03-29T20:49:38.381Z,9.88
2023-03-29T20:52:24.470Z,10.02
2023-03-29T20:54:51.539Z,10.07
2023-03-29T20:57:21.001Z,9.81
2023-03-29T20:59:49.500Z,9.83
2023-03-29T21:02:20.956Z,9.73
2023-03-29T21:04:52.529Z,9.63
2023-03-29T21:07:21.999Z,9.88
2023-03-29T21:09:50.654Z,9.83
2023-03-29T21:12:20.358Z,9.97
2023-03-29T21:14:47.679Z,9.84
2023-03-29T21:17:15.437Z,9.90
2023-03-29T21:19:43.195Z,9.83
2023-03-29T21:22:13.821Z,8.81
2023-03-29T21:24:40.786Z,8.12
2023-03-29T21:27:08.506Z,7.92
2023-03-29T21:29:36.920Z,7.57
2023-03-29T21:32:04.903Z,7.42
2023-03-29T21:34:31.757Z,7.22
2023-03-29T21:37:01.608Z,7.46
2023-03-29T21:39:28.695Z,7.47
2023-03-29T21:41:56.187Z,7.53
2023-03-29T21:44:26.328Z,7.45
2023-03-29T21:46:56.189Z,7.55
2023-03-29T21:49:23.168Z,7.63
2023-03-29T21:51:51.564Z,7.76
2023-03-29T21:54:18.759Z,7.98
2023-03-29T21:56:47.813Z,8.21
2023-03-29T21:59:14.753Z,8.39
2023-03-29T22:01:42.530Z,8.35
2023-03-29T22:04:11.707Z,8.59
2023-03-29T22:06:41.942Z,8.28
2023-03-29T22:09:11.248Z,8.53
2023-03-29T22:11:38.952Z,8.77
2023-03-29T22:14:08.048Z,8.86
2023-03-29T22:16:37.586Z,8.84
2023-03-29T22:19:06.546Z,8.82
2023-03-29T22:21:37.336Z,8.66
2023-03-29T22:24:08.617Z,8.52
2023-03-29T22:26:38.141Z,8.58
2023-03-29T22:29:06.116Z,8.24
2023-03-29T22:31:33.266Z,7.79
2023-03-29T22:34:02.892Z,7.46
2023-03-29T22:36:31.242Z,7.44
2023-03-29T22:39:01.058Z,7.49
2023-03-29T22:41:28.973Z,7.41
2023-03-29T22:43:58.893Z,7.28
2023-03-29T22:46:28.095Z,7.37
2023-03-29T22:48:57.059Z,7.33
2023-03-29T22:51:26.311Z,7.33
2023-03-29T22:53:54.132Z,7.34
2023-03-29T22:56:22.122Z,7.28
2023-03-29T22:58:49.254Z,7.18
2023-03-29T23:01:17.083Z,6.96
2023-03-29T23:03:44.216Z,6.75
2023-03-29T23:06:13.930Z,6.76
2023-03-29T23:08:42.751Z,6.77
2023-03-29T23:11:11.639Z,6.71
2023-03-29T23:13:39.908Z,6.61
2023-03-29T23:16:08.119Z,6.73
2023-03-29T23:18:38.756Z,6.66
2023-03-29T23:21:07.637Z,6.64
2023-03-29T23:23:37.593Z,6.70
2023-03-29T23:26:05.931Z,6.66
2023-03-29T23:28:34.879Z,6.63
2023-03-29T23:31:06.790Z,6.77
2023-03-29T23:33:36.079Z,6.74
2023-03-29T23:36:06.389Z,6.67
2023-03-29T23:38:37.310Z,6.65
2023-03-29T23:41:08.598Z,6.52
2023-03-29T23:43:40.703Z,6.48
2023-03-29T23:46:11.194Z,6.59
2023-03-29T23:48:39.286Z,6.61
2023-03-29T23:51:08.319Z,6.65
2023-03-29T23:53:38.323Z,6.76
2023-03-29T23:56:05.977Z,6.86
2023-03-29T23:58:36.930Z,6.99
